ANYN Airport Information

Runway Information
Runway 12 Length 7054 ft width 148 ft
Elevation 22 ft Threshold 165 ft Heading 121
Runway 30 Length 7054 ft Width 148 ft
Elevation 20 ft Threshold 380 ft Heading 301
Airport Frequencies
Type A/G Name FIC Frequency 118.1 MHZ
Airport Navaids
Type VOR-DME Name Nauru Frequency 113000 KHZ
Type NDB Name Nauru Frequency 355 KHZ
Airport Weather Information & NOTAM
ADDS - METARS form results

(0612 UTC 31 January 2023)
Data provider http://aviationweather.gov/metar/data/
 
METAR text: ANYN 310600Z 06007KT 9999 FEW020 BKN100 28/26 Q1006
Conditions at: ANYN (NAURU ISLAND , NR) observed 0600 UTC 31 January 2023
Temperature: 28.0°C (82°F)
Dewpoint: 26.0°C (79°F) [RH = 89%]
Pressure (altimeter): 29.70 inches Hg (1006.0 mb)
Winds: from the ENE (60 degrees) at 8 MPH (7 knots; 3.6 m/s)
Visibility: 6 or more miles (10+ km)
Ceiling: 10000 feet AGL
Clouds: few clouds at 2000 feet AGL
broken clouds at 10000 feet AGL
Weather: no significant weather observed at this time

Forecast for: ANYN (NAURU ISLAND , NR)
Text: TAF ANYN 302215Z 3100/0100 08012KT 9999 SCT020 T 31 30 29 27 Q 1008 1006 1007 1009
Forecast period: 0000 UTC 31 January 2023 to 0000 UTC 01 February 2023
Forecast type: FROM: standard forecast or significant change
Winds: from the E (80 degrees) at 14 MPH (12 knots; 6.2 m/s)
Visibility: 6 or more miles (10+ km)
Ceiling: at least 12,000 feet AGL
Clouds: scattered clouds at 2000 feet AGL
Weather: no significant weather forecast for this period